PILOTS ONLINE: 427    ATC ONLINE: 70

CYSK

Sanikiluaq Airport

Location

IATA YSK
City Sanikiluaq
Country  Canada
Latitude 56° 32' 16" N
Longitude 79° 14' 48" W
Elevation 104 ft
Type Medium Airport

Map

Weather

METAR
2014/10/24 22:00
CYSK 242200Z 18018KT 15SM OVC025 07/03 A2967 RMK SC7 8.2/4.8/M/M LAST OBS/NEXT 271200UTC SLP049
TAF
No TAF available

Runways

09/27 3800 ft / 0 ft

Outbound flights

Callsign Flying to Pilot ATD/STD ETA Aircraft

Inbound flights

Callsign Flying from Pilot ATD ETA Aircraft